Welcome to SceneSat Radio - the place that connects the many musical aspects of the scene to the rest of the world.

Current time: 2014-07-22 23:23
18 listeners from 9 countries.
Danceaway - Phantoms [05:33]
|
FFmusic Dj - Kingdom Hearts II Bootleg reNix [10:07] at 23:28:30
SHOW INFORMATION
A Space Journey with Hazel[ download ] [ .cuefile ]
Broadcasted 2009-04-25 20:00 - 2009-04-25 22:20
Show playlist
When What
2009-04-25 20:00:07 (00:00) Hazel - A Space Journey
2009-04-25 20:00:51 (00:44) Koto - From The Dawn of Time
2009-04-25 20:03:21 (03:14) Laserdance - Shotgun (Into the Night)
2009-04-25 20:05:44 (05:37) Koto - Jabdah (Chinese Mix)
2009-04-25 20:08:32 (08:25) Laserdance - Battle Cry (Remix)
2009-04-25 20:11:53 (11:46) Krzysztof Radomski - Above the Zenith
2009-04-25 20:16:28 (16:21) Koto - Dragon's Legend (Siegfried's Mix)
2009-04-25 20:21:33 (21:26) Laserdance - Power Run
2009-04-25 20:24:12 (24:05) Koto - Minoan War
2009-04-25 20:26:20 (26:13) Galaxion - Last Transmission
2009-04-25 20:29:18 (29:11) Everdune - Nemesis Conquer
2009-04-25 20:32:12 (32:05) Koto - Visitors (The Alien Mix)
2009-04-25 20:35:39 (35:32) Marco Rochowski - Orb of Fire
2009-04-25 20:39:35 (39:28) Koto - Time
2009-04-25 20:42:15 (42:08) Ladeon - Ancient Ruins of Jeppis
2009-04-25 20:44:47 (44:40) Koto - Acknowledge
2009-04-25 20:47:34 (47:27) Laserdance - Digital Dream
2009-04-25 20:51:21 (51:14) Xain - Space Diablo (Extended)
2009-04-25 20:55:09 (55:02) Laserdance - Humanoid Invasion
2009-04-25 20:58:07 (58:00) Galaxion - Through the Space
2009-04-25 21:02:51 (62:44) Laserdance - Fear
2009-04-25 21:05:17 (65:10) Space Garden - The Glory of the Space (Vocoder Mix)
2009-04-25 21:07:37 (67:30) Electron vs. Dreamtime - Through the Dark Mountains
2009-04-25 21:10:20 (70:13) Electron - Lights of Stalingrad
2009-04-25 21:14:46 (74:39) Beyond the Limits & Dreamtime - Space Battle (Remix)
2009-04-25 21:17:19 (77:12) Energon - The Game of Love
2009-04-25 21:20:07 (80:00) Electron - Symphony of the Fairies
2009-04-25 21:22:22 (82:15) Xain - The Hunter Remix
2009-04-25 21:24:21 (84:14) Jukke Lundqvist - Community
2009-04-25 21:27:38 (87:31) Firefox & Tip - A Final Hyperbase
2009-04-25 21:30:24 (90:17) Haggeman - Bottes Vernal Dance
2009-04-25 21:33:38 (93:31) Little Bitchard - Gone Laserdancing
2009-04-25 21:37:33 (97:26) Koto - Phenomenon Choir
2009-04-25 21:39:39 (99:32) Spiral - Phenomenon Choir (Hands On MyVoice)
2009-04-25 21:41:35 (101:28) Xain - DOSK
2009-04-25 21:43:23 (103:16) Macrocosm - Virtual Voltage
2009-04-25 21:46:00 (105:53) Marco Rochowski - Itopian Sky
2009-04-25 21:49:35 (109:28) Synthesis - Enter the Darkness
2009-04-25 21:52:35 (112:28) Jukke Lundqvist - The Voyager
2009-04-25 21:55:34 (115:27) Marco Rochowski - Beyond the Gates of Time
2009-04-25 21:59:52 (119:45) Xain - Xain And the Droid Invasion
2009-04-25 22:02:27 (122:20) Mark Vera - Twilight Imperium (Drydock Instrumental)
2009-04-25 22:04:34 (124:27) Dreamtime - Liquid Trip
2009-04-25 22:07:32 (127:25) Sonic Wanderer - Crazy Comets
2009-04-25 22:10:12 (130:05) Galaxion - Embyro Zero
2009-04-25 22:11:10 (131:03) Sonic Wanderer - Outer Space (Spaceboost Remix)
2009-04-25 22:12:54 (132:47) MindXpander - Krog's Return
2009-04-25 22:15:19 (135:12) MyVoice (Jukke Lundqvist) - Far From Home
Disclaimer | Privacy Statement | Terms of Use | Copyright © 2008-2014 SceneSat Radio. All rights reserved. All times are CEST.

Music and info sources

SceneSat Radio features tracks and info gathered from the following sites & communities (detailed credits for each track will be available on its respective info-page):